sensor_id;sensor_type;location;lat;lon;timestamp;P1;durP1;ratioP1;P2;durP2;ratioP2
10711;SDS011;5407;51.234;6.804;2022-10-16T00:01:05;1.42;;;1.25;;
10711;SDS011;5407;51.234;6.804;2022-10-16T00:03:34;1.30;;;1.20;;
10711;SDS011;5407;51.234;6.804;2022-10-16T00:06:01;1.40;;;1.30;;
10711;SDS011;5407;51.234;6.804;2022-10-16T00:08:28;1.38;;;1.20;;
10711;SDS011;5407;51.234;6.804;2022-10-16T00:10:59;1.60;;;1.30;;
10711;SDS011;5407;51.234;6.804;2022-10-16T00:13:27;1.58;;;1.30;;
10711;SDS011;5407;51.234;6.804;2022-10-16T00:15:55;3.55;;;1.40;;
10711;SDS011;5407;51.234;6.804;2022-10-16T00:18:23;2.28;;;1.23;;
10711;SDS011;5407;51.234;6.804;2022-10-16T00:20:50;2.30;;;1.60;;
10711;SDS011;5407;51.234;6.804;2022-10-16T00:23:18;1.75;;;1.40;;
10711;SDS011;5407;51.234;6.804;2022-10-16T00:25:45;1.38;;;1.27;;
10711;SDS011;5407;51.234;6.804;2022-10-16T00:28:21;1.63;;;1.50;;
10711;SDS011;5407;51.234;6.804;2022-10-16T00:30:48;1.20;;;1.10;;
10711;SDS011;5407;51.234;6.804;2022-10-16T00:33:15;1.90;;;1.20;;
10711;SDS011;5407;51.234;6.804;2022-10-16T00:35:43;1.80;;;1.30;;
10711;SDS011;5407;51.234;6.804;2022-10-16T00:38:10;1.48;;;1.30;;
10711;SDS011;5407;51.234;6.804;2022-10-16T00:40:37;1.52;;;1.42;;
10711;SDS011;5407;51.234;6.804;2022-10-16T00:43:07;2.50;;;1.10;;
10711;SDS011;5407;51.234;6.804;2022-10-16T00:45:38;1.65;;;1.20;;
10711;SDS011;5407;51.234;6.804;2022-10-16T00:48:06;1.33;;;1.23;;
10711;SDS011;5407;51.234;6.804;2022-10-16T00:50:38;1.20;;;1.10;;
10711;SDS011;5407;51.234;6.804;2022-10-16T00:53:09;1.45;;;1.30;;
10711;SDS011;5407;51.234;6.804;2022-10-16T00:55:38;1.27;;;1.13;;
10711;SDS011;5407;51.234;6.804;2022-10-16T00:58:05;1.35;;;1.20;;
10711;SDS011;5407;51.234;6.804;2022-10-16T01:00:32;2.35;;;1.20;;
10711;SDS011;5407;51.234;6.804;2022-10-16T01:02:59;2.35;;;1.38;;
10711;SDS011;5407;51.234;6.804;2022-10-16T01:05:30;1.10;;;1.00;;
10711;SDS011;5407;51.234;6.804;2022-10-16T01:08:01;1.23;;;1.20;;
10711;SDS011;5407;51.234;6.804;2022-10-16T01:10:38;1.42;;;1.23;;
10711;SDS011;5407;51.234;6.804;2022-10-16T01:13:10;1.38;;;1.20;;
10711;SDS011;5407;51.234;6.804;2022-10-16T01:15:41;1.25;;;1.15;;
10711;SDS011;5407;51.234;6.804;2022-10-16T01:18:14;1.20;;;1.10;;
10711;SDS011;5407;51.234;6.804;2022-10-16T01:20:46;1.17;;;1.10;;
10711;SDS011;5407;51.234;6.804;2022-10-16T01:23:21;2.97;;;1.23;;
10711;SDS011;5407;51.234;6.804;2022-10-16T01:26:17;1.10;;;1.00;;
10711;SDS011;5407;51.234;6.804;2022-10-16T01:29:00;1.20;;;1.20;;
10711;SDS011;5407;51.234;6.804;2022-10-16T01:31:33;1.20;;;1.10;;
10711;SDS011;5407;51.234;6.804;2022-10-16T01:34:03;1.20;;;1.10;;
10711;SDS011;5407;51.234;6.804;2022-10-16T01:36:35;1.25;;;1.15;;
10711;SDS011;5407;51.234;6.804;2022-10-16T01:39:05;1.20;;;1.10;;
10711;SDS011;5407;51.234;6.804;2022-10-16T01:41:36;1.80;;;1.20;;
10711;SDS011;5407;51.234;6.804;2022-10-16T01:44:08;1.35;;;1.20;;
10711;SDS011;5407;51.234;6.804;2022-10-16T01:46:39;1.50;;;1.20;;
10711;SDS011;5407;51.234;6.804;2022-10-16T01:49:09;1.20;;;1.10;;
10711;SDS011;5407;51.234;6.804;2022-10-16T01:51:38;1.65;;;1.25;;
10711;SDS011;5407;51.234;6.804;2022-10-16T01:54:06;1.05;;;0.95;;
10711;SDS011;5407;51.234;6.804;2022-10-16T01:56:34;1.30;;;1.20;;
10711;SDS011;5407;51.234;6.804;2022-10-16T01:59:04;1.17;;;1.15;;
10711;SDS011;5407;51.234;6.804;2022-10-16T02:01:37;1.20;;;1.10;;
10711;SDS011;5407;51.234;6.804;2022-10-16T02:04:08;0.95;;;0.95;;
10711;SDS011;5407;51.234;6.804;2022-10-16T02:06:39;1.50;;;1.40;;
10711;SDS011;5407;51.234;6.804;2022-10-16T02:09:06;1.20;;;1.10;;
10711;SDS011;5407;51.234;6.804;2022-10-16T02:11:33;1.17;;;1.00;;
10711;SDS011;5407;51.234;6.804;2022-10-16T02:14:01;1.93;;;1.10;;
10711;SDS011;5407;51.234;6.804;2022-10-16T02:16:34;1.30;;;1.20;;
10711;SDS011;5407;51.234;6.804;2022-10-16T02:19:04;1.30;;;1.20;;
10711;SDS011;5407;51.234;6.804;2022-10-16T02:21:33;1.35;;;1.20;;
10711;SDS011;5407;51.234;6.804;2022-10-16T02:24:08;1.27;;;0.93;;
10711;SDS011;5407;51.234;6.804;2022-10-16T02:26:40;1.02;;;1.00;;
10711;SDS011;5407;51.234;6.804;2022-10-16T02:29:13;1.10;;;1.00;;
10711;SDS011;5407;51.234;6.804;2022-10-16T02:31:44;1.08;;;0.85;;
10711;SDS011;5407;51.234;6.804;2022-10-16T02:34:17;0.90;;;0.90;;
10711;SDS011;5407;51.234;6.804;2022-10-16T02:36:47;0.93;;;0.93;;
10711;SDS011;5407;51.234;6.804;2022-10-16T02:39:16;1.00;;;1.00;;
10711;SDS011;5407;51.234;6.804;2022-10-16T02:41:45;1.40;;;1.10;;
10711;SDS011;5407;51.234;6.804;2022-10-16T02:44:12;1.30;;;1.00;;
10711;SDS011;5407;51.234;6.804;2022-10-16T02:46:39;1.10;;;1.00;;
10711;SDS011;5407;51.234;6.804;2022-10-16T02:49:06;1.25;;;1.10;;
10711;SDS011;5407;51.234;6.804;2022-10-16T02:51:34;1.67;;;1.20;;
10711;SDS011;5407;51.234;6.804;2022-10-16T02:54:01;0.88;;;0.88;;
10711;SDS011;5407;51.234;6.804;2022-10-16T02:56:28;1.20;;;1.00;;
10711;SDS011;5407;51.234;6.804;2022-10-16T02:58:56;0.80;;;0.80;;
10711;SDS011;5407;51.234;6.804;2022-10-16T03:01:23;1.05;;;1.00;;
10711;SDS011;5407;51.234;6.804;2022-10-16T03:03:50;1.00;;;1.00;;
10711;SDS011;5407;51.234;6.804;2022-10-16T03:06:16;1.48;;;0.82;;
10711;SDS011;5407;51.234;6.804;2022-10-16T03:08:45;0.83;;;0.83;;
10711;SDS011;5407;51.234;6.804;2022-10-16T03:11:12;1.27;;;0.83;;
10711;SDS011;5407;51.234;6.804;2022-10-16T03:13:38;0.77;;;0.77;;
10711;SDS011;5407;51.234;6.804;2022-10-16T03:16:05;0.90;;;0.90;;
10711;SDS011;5407;51.234;6.804;2022-10-16T03:18:32;1.05;;;0.95;;
10711;SDS011;5407;51.234;6.804;2022-10-16T03:20:59;1.30;;;1.20;;
10711;SDS011;5407;51.234;6.804;2022-10-16T03:23:26;0.90;;;0.90;;
10711;SDS011;5407;51.234;6.804;2022-10-16T03:25:54;0.80;;;0.80;;
10711;SDS011;5407;51.234;6.804;2022-10-16T03:28:21;1.10;;;0.95;;
10711;SDS011;5407;51.234;6.804;2022-10-16T03:30:48;0.80;;;0.80;;
10711;SDS011;5407;51.234;6.804;2022-10-16T03:33:15;0.77;;;0.77;;
10711;SDS011;5407;51.234;6.804;2022-10-16T03:35:42;1.17;;;0.90;;
10711;SDS011;5407;51.234;6.804;2022-10-16T03:38:08;1.10;;;1.00;;
10711;SDS011;5407;51.234;6.804;2022-10-16T03:40:35;0.70;;;0.70;;
10711;SDS011;5407;51.234;6.804;2022-10-16T03:43:04;0.82;;;0.75;;
10711;SDS011;5407;51.234;6.804;2022-10-16T03:45:31;0.90;;;0.90;;
10711;SDS011;5407;51.234;6.804;2022-10-16T03:47:58;0.73;;;0.73;;
10711;SDS011;5407;51.234;6.804;2022-10-16T03:50:25;0.70;;;0.70;;
10711;SDS011;5407;51.234;6.804;2022-10-16T03:52:52;0.70;;;0.70;;
10711;SDS011;5407;51.234;6.804;2022-10-16T03:55:18;0.80;;;0.80;;
10711;SDS011;5407;51.234;6.804;2022-10-16T03:57:45;0.88;;;0.88;;
10711;SDS011;5407;51.234;6.804;2022-10-16T04:00:13;0.75;;;0.75;;
10711;SDS011;5407;51.234;6.804;2022-10-16T04:02:40;0.88;;;0.85;;
10711;SDS011;5407;51.234;6.804;2022-10-16T04:05:07;0.90;;;0.80;;
10711;SDS011;5407;51.234;6.804;2022-10-16T04:07:35;0.68;;;0.68;;
10711;SDS011;5407;51.234;6.804;2022-10-16T04:10:02;0.80;;;0.80;;
10711;SDS011;5407;51.234;6.804;2022-10-16T04:12:29;0.88;;;0.82;;
10711;SDS011;5407;51.234;6.804;2022-10-16T04:14:56;0.82;;;0.82;;
10711;SDS011;5407;51.234;6.804;2022-10-16T04:17:24;0.75;;;0.63;;
10711;SDS011;5407;51.234;6.804;2022-10-16T04:19:51;0.93;;;0.75;;
10711;SDS011;5407;51.234;6.804;2022-10-16T04:22:17;0.98;;;0.70;;
10711;SDS011;5407;51.234;6.804;2022-10-16T04:24:44;1.75;;;0.65;;
10711;SDS011;5407;51.234;6.804;2022-10-16T04:27:11;0.60;;;0.60;;
10711;SDS011;5407;51.234;6.804;2022-10-16T04:29:38;0.50;;;0.50;;
10711;SDS011;5407;51.234;6.804;2022-10-16T04:32:05;0.90;;;0.90;;
10711;SDS011;5407;51.234;6.804;2022-10-16T04:34:35;1.10;;;1.00;;
10711;SDS011;5407;51.234;6.804;2022-10-16T04:37:03;0.82;;;0.82;;
10711;SDS011;5407;51.234;6.804;2022-10-16T04:39:30;1.85;;;0.80;;
10711;SDS011;5407;51.234;6.804;2022-10-16T04:41:57;0.70;;;0.70;;
10711;SDS011;5407;51.234;6.804;2022-10-16T04:44:23;0.85;;;0.60;;
10711;SDS011;5407;51.234;6.804;2022-10-16T04:46:50;0.95;;;0.63;;
10711;SDS011;5407;51.234;6.804;2022-10-16T04:49:17;0.63;;;0.63;;
10711;SDS011;5407;51.234;6.804;2022-10-16T04:51:45;0.50;;;0.50;;
10711;SDS011;5407;51.234;6.804;2022-10-16T04:54:12;0.90;;;0.80;;
10711;SDS011;5407;51.234;6.804;2022-10-16T04:56:39;1.08;;;0.70;;
10711;SDS011;5407;51.234;6.804;2022-10-16T04:59:11;0.80;;;0.80;;
10711;SDS011;5407;51.234;6.804;2022-10-16T05:01:39;1.08;;;0.80;;
10711;SDS011;5407;51.234;6.804;2022-10-16T05:04:06;0.80;;;0.80;;
10711;SDS011;5407;51.234;6.804;2022-10-16T05:06:33;2.03;;;0.75;;
10711;SDS011;5407;51.234;6.804;2022-10-16T05:09:01;2.05;;;0.50;;
10711;SDS011;5407;51.234;6.804;2022-10-16T05:11:28;0.63;;;0.63;;
10711;SDS011;5407;51.234;6.804;2022-10-16T05:13:55;0.80;;;0.73;;
10711;SDS011;5407;51.234;6.804;2022-10-16T05:16:22;0.68;;;0.50;;
10711;SDS011;5407;51.234;6.804;2022-10-16T05:18:49;0.82;;;0.60;;
10711;SDS011;5407;51.234;6.804;2022-10-16T05:21:17;0.70;;;0.70;;
10711;SDS011;5407;51.234;6.804;2022-10-16T05:23:44;0.68;;;0.68;;
10711;SDS011;5407;51.234;6.804;2022-10-16T05:26:12;0.70;;;0.70;;
10711;SDS011;5407;51.234;6.804;2022-10-16T05:28:39;0.50;;;0.50;;
10711;SDS011;5407;51.234;6.804;2022-10-16T05:31:06;0.50;;;0.50;;
10711;SDS011;5407;51.234;6.804;2022-10-16T05:33:34;0.70;;;0.70;;
10711;SDS011;5407;51.234;6.804;2022-10-16T05:36:01;0.65;;;0.50;;
10711;SDS011;5407;51.234;6.804;2022-10-16T05:38:29;0.50;;;0.50;;
10711;SDS011;5407;51.234;6.804;2022-10-16T05:40:56;0.73;;;0.60;;
10711;SDS011;5407;51.234;6.804;2022-10-16T05:43:24;0.68;;;0.68;;
10711;SDS011;5407;51.234;6.804;2022-10-16T05:45:53;0.33;;;0.33;;
10711;SDS011;5407;51.234;6.804;2022-10-16T05:48:21;0.43;;;0.43;;
10711;SDS011;5407;51.234;6.804;2022-10-16T05:50:48;3.08;;;0.60;;
10711;SDS011;5407;51.234;6.804;2022-10-16T05:53:22;2.15;;;0.75;;
10711;SDS011;5407;51.234;6.804;2022-10-16T05:55:53;0.75;;;0.75;;
10711;SDS011;5407;51.234;6.804;2022-10-16T05:58:20;1.20;;;0.80;;
10711;SDS011;5407;51.234;6.804;2022-10-16T06:00:55;2.05;;;0.70;;
10711;SDS011;5407;51.234;6.804;2022-10-16T06:03:22;4.13;;;1.20;;
10711;SDS011;5407;51.234;6.804;2022-10-16T06:05:49;0.77;;;0.70;;
10711;SDS011;5407;51.234;6.804;2022-10-16T06:08:17;0.80;;;0.80;;
10711;SDS011;5407;51.234;6.804;2022-10-16T06:10:44;0.90;;;0.90;;
10711;SDS011;5407;51.234;6.804;2022-10-16T06:13:11;3.08;;;0.85;;
10711;SDS011;5407;51.234;6.804;2022-10-16T06:15:39;1.07;;;0.97;;
10711;SDS011;5407;51.234;6.804;2022-10-16T06:18:09;1.00;;;0.77;;
10711;SDS011;5407;51.234;6.804;2022-10-16T06:20:36;2.35;;;0.82;;
10711;SDS011;5407;51.234;6.804;2022-10-16T06:23:03;3.35;;;0.90;;
10711;SDS011;5407;51.234;6.804;2022-10-16T06:25:30;1.30;;;1.00;;
10711;SDS011;5407;51.234;6.804;2022-10-16T06:27:57;1.77;;;0.83;;
10711;SDS011;5407;51.234;6.804;2022-10-16T06:30:24;0.60;;;0.60;;
10711;SDS011;5407;51.234;6.804;2022-10-16T06:32:51;0.80;;;0.77;;
10711;SDS011;5407;51.234;6.804;2022-10-16T06:35:19;3.25;;;0.95;;
10711;SDS011;5407;51.234;6.804;2022-10-16T06:37:46;1.00;;;0.90;;
10711;SDS011;5407;51.234;6.804;2022-10-16T06:40:13;1.63;;;0.65;;
10711;SDS011;5407;51.234;6.804;2022-10-16T06:42:40;1.17;;;1.00;;
10711;SDS011;5407;51.234;6.804;2022-10-16T06:45:07;1.70;;;0.80;;
10711;SDS011;5407;51.234;6.804;2022-10-16T06:47:35;2.83;;;0.80;;
10711;SDS011;5407;51.234;6.804;2022-10-16T06:50:02;1.08;;;0.70;;
10711;SDS011;5407;51.234;6.804;2022-10-16T06:52:33;1.70;;;0.90;;
10711;SDS011;5407;51.234;6.804;2022-10-16T06:55:00;1.27;;;1.00;;
10711;SDS011;5407;51.234;6.804;2022-10-16T06:57:28;1.58;;;0.98;;
10711;SDS011;5407;51.234;6.804;2022-10-16T06:59:55;0.93;;;0.83;;
10711;SDS011;5407;51.234;6.804;2022-10-16T07:02:21;2.15;;;0.90;;
10711;SDS011;5407;51.234;6.804;2022-10-16T07:04:48;1.75;;;1.10;;
10711;SDS011;5407;51.234;6.804;2022-10-16T07:07:15;3.63;;;1.45;;
10711;SDS011;5407;51.234;6.804;2022-10-16T07:09:43;1.92;;;1.10;;
10711;SDS011;5407;51.234;6.804;2022-10-16T07:12:10;1.25;;;0.90;;
10711;SDS011;5407;51.234;6.804;2022-10-16T07:14:37;1.23;;;1.03;;
10711;SDS011;5407;51.234;6.804;2022-10-16T07:17:04;1.23;;;0.90;;
10711;SDS011;5407;51.234;6.804;2022-10-16T07:19:30;1.65;;;1.00;;
10711;SDS011;5407;51.234;6.804;2022-10-16T07:21:57;2.58;;;1.13;;
10711;SDS011;5407;51.234;6.804;2022-10-16T07:24:24;2.50;;;1.00;;
10711;SDS011;5407;51.234;6.804;2022-10-16T07:26:52;1.00;;;1.00;;
10711;SDS011;5407;51.234;6.804;2022-10-16T07:29:20;1.98;;;1.30;;
10711;SDS011;5407;51.234;6.804;2022-10-16T07:31:47;2.20;;;1.00;;
10711;SDS011;5407;51.234;6.804;2022-10-16T07:34:16;1.50;;;1.00;;
10711;SDS011;5407;51.234;6.804;2022-10-16T07:36:44;1.48;;;0.90;;
10711;SDS011;5407;51.234;6.804;2022-10-16T07:39:11;1.17;;;1.08;;
10711;SDS011;5407;51.234;6.804;2022-10-16T07:41:38;1.50;;;1.20;;
10711;SDS011;5407;51.234;6.804;2022-10-16T07:44:06;1.85;;;1.13;;
10711;SDS011;5407;51.234;6.804;2022-10-16T07:46:33;1.98;;;1.05;;
10711;SDS011;5407;51.234;6.804;2022-10-16T07:49:01;1.88;;;1.13;;
10711;SDS011;5407;51.234;6.804;2022-10-16T07:51:28;2.80;;;1.10;;
10711;SDS011;5407;51.234;6.804;2022-10-16T07:53:55;2.80;;;1.13;;
10711;SDS011;5407;51.234;6.804;2022-10-16T07:56:22;1.42;;;1.10;;
10711;SDS011;5407;51.234;6.804;2022-10-16T07:58:49;1.17;;;1.08;;
10711;SDS011;5407;51.234;6.804;2022-10-16T08:01:18;3.42;;;1.20;;
10711;SDS011;5407;51.234;6.804;2022-10-16T08:03:46;1.50;;;0.95;;
10711;SDS011;5407;51.234;6.804;2022-10-16T08:06:14;1.63;;;1.23;;
10711;SDS011;5407;51.234;6.804;2022-10-16T08:08:41;1.77;;;1.10;;
10711;SDS011;5407;51.234;6.804;2022-10-16T08:11:08;1.48;;;1.20;;
10711;SDS011;5407;51.234;6.804;2022-10-16T08:13:35;1.35;;;1.02;;
10711;SDS011;5407;51.234;6.804;2022-10-16T08:16:02;2.38;;;1.10;;
10711;SDS011;5407;51.234;6.804;2022-10-16T08:18:34;1.10;;;0.98;;
10711;SDS011;5407;51.234;6.804;2022-10-16T08:21:02;2.75;;;1.35;;
10711;SDS011;5407;51.234;6.804;2022-10-16T08:23:29;4.85;;;1.20;;
10711;SDS011;5407;51.234;6.804;2022-10-16T08:26:01;1.88;;;1.10;;
10711;SDS011;5407;51.234;6.804;2022-10-16T08:28:30;3.20;;;1.30;;
10711;SDS011;5407;51.234;6.804;2022-10-16T08:31:04;2.03;;;1.00;;
10711;SDS011;5407;51.234;6.804;2022-10-16T08:33:31;1.58;;;1.40;;
10711;SDS011;5407;51.234;6.804;2022-10-16T08:36:01;1.42;;;1.10;;
10711;SDS011;5407;51.234;6.804;2022-10-16T08:38:29;3.08;;;1.50;;
10711;SDS011;5407;51.234;6.804;2022-10-16T08:40:56;2.15;;;1.10;;
10711;SDS011;5407;51.234;6.804;2022-10-16T08:43:43;2.75;;;1.38;;
10711;SDS011;5407;51.234;6.804;2022-10-16T08:46:34;4.03;;;1.38;;
10711;SDS011;5407;51.234;6.804;2022-10-16T08:49:09;1.48;;;1.10;;
10711;SDS011;5407;51.234;6.804;2022-10-16T08:51:40;2.20;;;1.13;;
10711;SDS011;5407;51.234;6.804;2022-10-16T08:54:11;1.77;;;1.10;;
10711;SDS011;5407;51.234;6.804;2022-10-16T08:56:49;2.70;;;1.10;;
10711;SDS011;5407;51.234;6.804;2022-10-16T08:59:16;2.90;;;1.15;;
10711;SDS011;5407;51.234;6.804;2022-10-16T09:01:45;3.67;;;1.30;;
10711;SDS011;5407;51.234;6.804;2022-10-16T09:07:17;1.38;;;0.93;;
10711;SDS011;5407;51.234;6.804;2022-10-16T09:09:59;1.98;;;0.98;;
10711;SDS011;5407;51.234;6.804;2022-10-16T09:12:37;1.98;;;0.88;;
10711;SDS011;5407;51.234;6.804;2022-10-16T09:15:14;1.25;;;0.80;;
10711;SDS011;5407;51.234;6.804;2022-10-16T09:17:52;5.35;;;1.20;;
10711;SDS011;5407;51.234;6.804;2022-10-16T09:20:30;0.88;;;0.88;;
10711;SDS011;5407;51.234;6.804;2022-10-16T09:23:10;4.10;;;1.35;;
10711;SDS011;5407;51.234;6.804;2022-10-16T09:25:43;2.10;;;0.98;;
10711;SDS011;5407;51.234;6.804;2022-10-16T09:28:13;1.35;;;0.80;;
10711;SDS011;5407;51.234;6.804;2022-10-16T09:30:40;1.83;;;0.90;;
10711;SDS011;5407;51.234;6.804;2022-10-16T09:33:07;1.85;;;1.00;;
10711;SDS011;5407;51.234;6.804;2022-10-16T09:35:36;0.98;;;0.90;;
10711;SDS011;5407;51.234;6.804;2022-10-16T09:38:05;2.08;;;1.10;;
10711;SDS011;5407;51.234;6.804;2022-10-16T09:40:34;3.13;;;1.20;;
10711;SDS011;5407;51.234;6.804;2022-10-16T09:43:05;1.77;;;0.80;;
10711;SDS011;5407;51.234;6.804;2022-10-16T09:45:52;4.17;;;1.00;;
10711;SDS011;5407;51.234;6.804;2022-10-16T09:48:25;3.78;;;1.10;;
10711;SDS011;5407;51.234;6.804;2022-10-16T09:50:58;4.70;;;1.73;;
10711;SDS011;5407;51.234;6.804;2022-10-16T09:53:26;2.03;;;1.30;;
10711;SDS011;5407;51.234;6.804;2022-10-16T09:56:09;4.18;;;1.52;;
10711;SDS011;5407;51.234;6.804;2022-10-16T09:58:41;3.67;;;1.20;;
10711;SDS011;5407;51.234;6.804;2022-10-16T10:01:11;3.50;;;1.40;;
10711;SDS011;5407;51.234;6.804;2022-10-16T10:03:40;2.72;;;1.10;;
10711;SDS011;5407;51.234;6.804;2022-10-16T10:06:21;4.95;;;1.13;;
10711;SDS011;5407;51.234;6.804;2022-10-16T10:08:56;1.42;;;1.00;;
10711;SDS011;5407;51.234;6.804;2022-10-16T10:11:48;2.53;;;1.20;;
10711;SDS011;5407;51.234;6.804;2022-10-16T10:14:21;1.20;;;1.10;;
10711;SDS011;5407;51.234;6.804;2022-10-16T10:17:11;1.88;;;1.05;;
10711;SDS011;5407;51.234;6.804;2022-10-16T10:19:43;1.83;;;0.95;;
10711;SDS011;5407;51.234;6.804;2022-10-16T10:22:16;1.13;;;0.90;;
10711;SDS011;5407;51.234;6.804;2022-10-16T10:24:46;2.47;;;0.98;;
10711;SDS011;5407;51.234;6.804;2022-10-16T10:27:23;4.30;;;1.17;;
10711;SDS011;5407;51.234;6.804;2022-10-16T10:29:59;2.35;;;0.90;;
10711;SDS011;5407;51.234;6.804;2022-10-16T10:32:33;4.18;;;1.58;;
10711;SDS011;5407;51.234;6.804;2022-10-16T10:35:12;4.15;;;1.95;;
10711;SDS011;5407;51.234;6.804;2022-10-16T10:37:49;2.67;;;1.30;;
10711;SDS011;5407;51.234;6.804;2022-10-16T10:40:31;1.23;;;1.07;;
10711;SDS011;5407;51.234;6.804;2022-10-16T10:43:09;3.30;;;1.10;;
10711;SDS011;5407;51.234;6.804;2022-10-16T10:45:44;2.30;;;1.00;;
10711;SDS011;5407;51.234;6.804;2022-10-16T10:48:17;2.33;;;0.90;;
10711;SDS011;5407;51.234;6.804;2022-10-16T10:50:51;2.70;;;1.13;;
10711;SDS011;5407;51.234;6.804;2022-10-16T10:53:25;5.68;;;1.10;;
10711;SDS011;5407;51.234;6.804;2022-10-16T10:56:05;2.75;;;1.08;;
10711;SDS011;5407;51.234;6.804;2022-10-16T11:01:40;2.65;;;1.13;;
10711;SDS011;5407;51.234;6.804;2022-10-16T11:04:28;1.73;;;1.07;;
10711;SDS011;5407;51.234;6.804;2022-10-16T11:07:20;1.52;;;1.05;;
10711;SDS011;5407;51.234;6.804;2022-10-16T11:09:52;2.70;;;1.05;;
10711;SDS011;5407;51.234;6.804;2022-10-16T11:12:24;2.33;;;1.10;;
10711;SDS011;5407;51.234;6.804;2022-10-16T11:14:57;1.13;;;1.00;;
10711;SDS011;5407;51.234;6.804;2022-10-16T11:17:28;1.50;;;0.60;;
10711;SDS011;5407;51.234;6.804;2022-10-16T11:20:00;1.90;;;1.20;;
10711;SDS011;5407;51.234;6.804;2022-10-16T11:22:32;1.20;;;1.00;;
10711;SDS011;5407;51.234;6.804;2022-10-16T11:25:04;1.23;;;0.90;;
10711;SDS011;5407;51.234;6.804;2022-10-16T11:27:40;1.10;;;1.00;;
10711;SDS011;5407;51.234;6.804;2022-10-16T11:30:14;1.92;;;1.13;;
10711;SDS011;5407;51.234;6.804;2022-10-16T11:32:50;2.20;;;1.13;;
10711;SDS011;5407;51.234;6.804;2022-10-16T11:35:30;1.98;;;1.23;;
10711;SDS011;5407;51.234;6.804;2022-10-16T11:38:08;1.50;;;1.10;;
10711;SDS011;5407;51.234;6.804;2022-10-16T11:40:38;1.10;;;0.85;;
10711;SDS011;5407;51.234;6.804;2022-10-16T11:43:10;1.17;;;1.00;;
10711;SDS011;5407;51.234;6.804;2022-10-16T11:45:43;1.70;;;1.00;;
10711;SDS011;5407;51.234;6.804;2022-10-16T11:48:15;1.80;;;1.02;;
10711;SDS011;5407;51.234;6.804;2022-10-16T11:50:50;0.80;;;0.80;;
10711;SDS011;5407;51.234;6.804;2022-10-16T11:53:21;1.52;;;0.95;;
10711;SDS011;5407;51.234;6.804;2022-10-16T11:55:58;1.65;;;1.00;;
10711;SDS011;5407;51.234;6.804;2022-10-16T11:58:25;3.30;;;1.00;;
10711;SDS011;5407;51.234;6.804;2022-10-16T12:01:01;1.38;;;1.08;;
10711;SDS011;5407;51.234;6.804;2022-10-16T12:03:42;1.58;;;1.10;;
10711;SDS011;5407;51.234;6.804;2022-10-16T12:06:20;3.10;;;1.98;;
10711;SDS011;5407;51.234;6.804;2022-10-16T12:08:53;2.72;;;1.60;;
10711;SDS011;5407;51.234;6.804;2022-10-16T12:11:31;7.90;;;2.20;;
10711;SDS011;5407;51.234;6.804;2022-10-16T12:14:04;2.65;;;1.50;;
10711;SDS011;5407;51.234;6.804;2022-10-16T12:16:36;2.78;;;1.20;;
10711;SDS011;5407;51.234;6.804;2022-10-16T12:19:10;2.58;;;0.93;;
10711;SDS011;5407;51.234;6.804;2022-10-16T12:21:39;2.53;;;1.40;;
10711;SDS011;5407;51.234;6.804;2022-10-16T12:24:18;2.13;;;1.10;;
10711;SDS011;5407;51.234;6.804;2022-10-16T12:26:47;1.33;;;0.90;;
10711;SDS011;5407;51.234;6.804;2022-10-16T12:29:21;3.85;;;1.10;;
10711;SDS011;5407;51.234;6.804;2022-10-16T12:32:00;1.45;;;0.93;;
10711;SDS011;5407;51.234;6.804;2022-10-16T12:34:29;3.17;;;1.20;;
10711;SDS011;5407;51.234;6.804;2022-10-16T12:37:10;1.67;;;0.90;;
10711;SDS011;5407;51.234;6.804;2022-10-16T12:39:40;2.40;;;0.95;;
10711;SDS011;5407;51.234;6.804;2022-10-16T12:42:19;1.25;;;0.90;;
10711;SDS011;5407;51.234;6.804;2022-10-16T12:44:49;4.20;;;0.93;;
10711;SDS011;5407;51.234;6.804;2022-10-16T12:47:21;1.35;;;1.00;;
10711;SDS011;5407;51.234;6.804;2022-10-16T12:49:51;1.40;;;0.93;;
10711;SDS011;5407;51.234;6.804;2022-10-16T12:52:28;2.45;;;1.10;;
10711;SDS011;5407;51.234;6.804;2022-10-16T12:55:02;2.47;;;0.90;;
10711;SDS011;5407;51.234;6.804;2022-10-16T12:57:34;1.45;;;1.00;;
10711;SDS011;5407;51.234;6.804;2022-10-16T13:00:13;1.45;;;0.80;;
10711;SDS011;5407;51.234;6.804;2022-10-16T13:03:01;1.90;;;0.90;;
10711;SDS011;5407;51.234;6.804;2022-10-16T13:05:47;2.58;;;0.73;;
10711;SDS011;5407;51.234;6.804;2022-10-16T13:08:29;4.10;;;1.10;;
10711;SDS011;5407;51.234;6.804;2022-10-16T13:11:11;2.08;;;1.10;;
10711;SDS011;5407;51.234;6.804;2022-10-16T13:13:55;1.33;;;0.93;;
10711;SDS011;5407;51.234;6.804;2022-10-16T13:16:38;2.27;;;0.90;;
10711;SDS011;5407;51.234;6.804;2022-10-16T13:19:20;1.13;;;0.90;;
10711;SDS011;5407;51.234;6.804;2022-10-16T13:21:56;1.48;;;0.98;;
10711;SDS011;5407;51.234;6.804;2022-10-16T13:24:36;4.30;;;1.00;;
10711;SDS011;5407;51.234;6.804;2022-10-16T13:27:15;1.90;;;0.90;;
10711;SDS011;5407;51.234;6.804;2022-10-16T13:29:52;2.35;;;0.98;;
10711;SDS011;5407;51.234;6.804;2022-10-16T13:32:21;1.58;;;0.88;;
10711;SDS011;5407;51.234;6.804;2022-10-16T13:34:49;2.00;;;1.00;;
10711;SDS011;5407;51.234;6.804;2022-10-16T13:37:18;3.70;;;1.13;;
10711;SDS011;5407;51.234;6.804;2022-10-16T13:39:46;1.58;;;0.80;;
10711;SDS011;5407;51.234;6.804;2022-10-16T13:42:18;0.90;;;0.70;;
10711;SDS011;5407;51.234;6.804;2022-10-16T13:44:50;1.77;;;1.45;;
10711;SDS011;5407;51.234;6.804;2022-10-16T13:47:19;1.25;;;0.82;;
10711;SDS011;5407;51.234;6.804;2022-10-16T13:49:47;1.83;;;0.80;;
10711;SDS011;5407;51.234;6.804;2022-10-16T13:52:27;1.88;;;0.80;;
10711;SDS011;5407;51.234;6.804;2022-10-16T13:54:54;1.65;;;1.10;;
10711;SDS011;5407;51.234;6.804;2022-10-16T13:57:21;1.48;;;1.00;;
10711;SDS011;5407;51.234;6.804;2022-10-16T13:59:50;3.28;;;1.10;;
10711;SDS011;5407;51.234;6.804;2022-10-16T14:02:19;3.88;;;2.55;;
10711;SDS011;5407;51.234;6.804;2022-10-16T14:04:51;5.70;;;2.65;;
10711;SDS011;5407;51.234;6.804;2022-10-16T14:07:22;3.40;;;1.85;;
10711;SDS011;5407;51.234;6.804;2022-10-16T14:09:52;1.70;;;1.40;;
10711;SDS011;5407;51.234;6.804;2022-10-16T14:12:20;2.13;;;1.65;;
10711;SDS011;5407;51.234;6.804;2022-10-16T14:14:48;1.73;;;1.48;;
10711;SDS011;5407;51.234;6.804;2022-10-16T14:17:18;4.13;;;1.30;;
10711;SDS011;5407;51.234;6.804;2022-10-16T14:19:48;3.58;;;1.25;;
10711;SDS011;5407;51.234;6.804;2022-10-16T14:22:30;1.55;;;1.20;;
10711;SDS011;5407;51.234;6.804;2022-10-16T14:24:58;1.38;;;1.20;;
10711;SDS011;5407;51.234;6.804;2022-10-16T14:27:30;2.58;;;1.48;;
10711;SDS011;5407;51.234;6.804;2022-10-16T14:30:15;2.53;;;1.13;;
10711;SDS011;5407;51.234;6.804;2022-10-16T14:32:52;4.45;;;1.60;;
10711;SDS011;5407;51.234;6.804;2022-10-16T14:35:24;2.40;;;1.50;;
10711;SDS011;5407;51.234;6.804;2022-10-16T14:37:55;5.38;;;2.22;;
10711;SDS011;5407;51.234;6.804;2022-10-16T14:40:24;3.17;;;1.70;;
10711;SDS011;5407;51.234;6.804;2022-10-16T14:42:53;3.20;;;1.73;;
10711;SDS011;5407;51.234;6.804;2022-10-16T14:45:20;12.52;;;3.50;;
10711;SDS011;5407;51.234;6.804;2022-10-16T14:47:49;11.25;;;3.22;;
10711;SDS011;5407;51.234;6.804;2022-10-16T14:50:18;17.75;;;4.72;;
10711;SDS011;5407;51.234;6.804;2022-10-16T14:52:45;10.45;;;3.17;;
10711;SDS011;5407;51.234;6.804;2022-10-16T14:55:14;5.00;;;2.15;;
10711;SDS011;5407;51.234;6.804;2022-10-16T14:57:42;3.67;;;1.67;;
10711;SDS011;5407;51.234;6.804;2022-10-16T15:00:13;3.60;;;1.20;;
10711;SDS011;5407;51.234;6.804;2022-10-16T15:02:43;4.15;;;1.80;;
10711;SDS011;5407;51.234;6.804;2022-10-16T15:05:11;6.72;;;2.30;;
10711;SDS011;5407;51.234;6.804;2022-10-16T15:07:41;5.60;;;1.63;;
10711;SDS011;5407;51.234;6.804;2022-10-16T15:10:08;1.73;;;1.25;;
10711;SDS011;5407;51.234;6.804;2022-10-16T15:12:37;4.07;;;1.77;;
10711;SDS011;5407;51.234;6.804;2022-10-16T15:15:11;4.25;;;1.50;;
10711;SDS011;5407;51.234;6.804;2022-10-16T15:17:50;3.17;;;1.40;;
10711;SDS011;5407;51.234;6.804;2022-10-16T15:20:18;1.95;;;1.40;;
10711;SDS011;5407;51.234;6.804;2022-10-16T15:22:45;2.03;;;1.40;;
10711;SDS011;5407;51.234;6.804;2022-10-16T15:25:29;2.88;;;1.40;;
10711;SDS011;5407;51.234;6.804;2022-10-16T15:28:01;2.13;;;1.30;;